Aérodrome :
LOGIN :

S'inscrire | Disclaimer

   EN    FR    IT 

 










Légende :    VFR   VFR Marginal   IFR   IFR Intensif   IFR Très Intensif
Visi : 
Plafond : 
>= 8 km
>= 3000ft
5 à 8 km
1000 à 3000 ft
1500m à 5 km
500 à 1000 ft
800 à 1500m
200 à 500 ft
< 800m
< 200 ft
Symboles :   Orages  Brouillard  Fortes neiges  Fortes précipitations  Vent > 20 kt
SIGMETs :   Divers  Orages  Givrage  Turbulence  Onde Orograph.  Cendres Volcan.






- Altitude de l'aérodrome : 1260 ft
- Code IATA : LDE


LFBT - Tarbes / Ossun

DERNIER METAR :
  • 231430Z AUTO 32013KT 280V340 9999 -RA FEW021 SCT044 BKN054 09/06 Q1003 BECMG VRB03KT

METARs EXPIRÉS :
  • 231400Z AUTO 29014KT 9999 OVC062 11/03 Q1003 BECMG VRB03KT
  • 231330Z AUTO 28012KT 9999 BKN060 BKN220 12/03 Q1002 TEMPO 27018G30KT
  • 231300Z AUTO 27014KT 9999 FEW060 13/03 Q1003 TEMPO 27018G30KT
  • 231230Z AUTO 27014KT 9999 SCT064 BKN074 BKN084 13/02 Q1003 TEMPO 27018G30KT
  • 231200Z AUTO 28018KT 9999 FEW068 12/02 Q1004 TEMPO 27018G30KT

TAF TAF LFBT
Valide du 23 à 12h jusqu'au 24 à 12h UTC


231100Z 2312/2412 27015KT 9999 BKN060
TEMPO 2312/2315 27018G30KT
BECMG 2315/2317 VRB03KT -RA BKN030
BECMG 2323/2324 27015KT
TEMPO 2400/2406 27020G40KT 4000 RA OVC010
TEMPO 2406/2412 27015G25KT 4000 SHRA BKN014TCU



MET'MAP, la Météo Aéronautique d'un coup d'oeil ! - Copyright ORBIFLY Décembre 2007 - Disclaimer

ORBIFLY MET'MAP TEAM :

Programmation & Développement : Alexandra Zaïnal
Sur une idée originale de : Baudouin d'Aumeries
Assistance à la programmation : Marc-Olivier Méhu
Soutien technique & logistique : Manuel Goepfert

Contact : metmap@orbifly.com




SOURCES & CREDITS :

   NOAA